createdAt,value
2022-10-11T00:00:11.589Z,14.32
2022-10-11T00:01:11.678Z,14.30
2022-10-11T00:02:11.560Z,14.29
2022-10-11T00:03:11.560Z,14.28
2022-10-11T00:04:11.569Z,14.23
2022-10-11T00:05:11.537Z,14.23
2022-10-11T00:06:11.519Z,14.22
2022-10-11T00:07:11.508Z,14.22
2022-10-11T00:08:11.505Z,14.22
2022-10-11T00:09:11.503Z,14.18
2022-10-11T00:10:11.493Z,14.20
2022-10-11T00:11:11.478Z,14.17
2022-10-11T00:12:11.459Z,14.17
2022-10-11T00:13:11.449Z,14.14
2022-10-11T00:14:11.439Z,14.11
2022-10-11T00:15:11.449Z,14.10
2022-10-11T00:16:11.418Z,14.05
2022-10-11T00:17:11.411Z,14.04
2022-10-11T00:18:11.418Z,14.03
2022-10-11T00:19:11.382Z,13.97
2022-10-11T00:20:11.366Z,13.96
2022-10-11T00:21:11.357Z,13.93
2022-10-11T00:22:11.357Z,13.92
2022-10-11T00:23:11.349Z,13.93
2022-10-11T00:24:11.350Z,13.89
2022-10-11T00:25:11.308Z,13.87
2022-10-11T00:26:11.303Z,13.85
2022-10-11T00:27:11.290Z,13.85
2022-10-11T00:28:11.308Z,13.85
2022-10-11T00:29:11.293Z,13.83
2022-10-11T00:30:11.264Z,13.83
2022-10-11T00:31:11.253Z,13.83
2022-10-11T00:32:11.241Z,13.81
2022-10-11T00:33:11.226Z,13.81
2022-10-11T00:34:11.215Z,13.81
2022-10-11T00:35:11.218Z,13.79
2022-10-11T00:36:11.200Z,13.78
2022-10-11T00:37:11.184Z,13.78
2022-10-11T00:38:11.177Z,13.77
2022-10-11T00:39:12.312Z,13.75
2022-10-11T00:40:11.155Z,13.77
2022-10-11T00:41:11.161Z,13.74
2022-10-11T00:42:11.159Z,13.75
2022-10-11T00:43:11.122Z,13.75
2022-10-11T00:44:11.113Z,13.77
2022-10-11T00:45:11.092Z,13.78
2022-10-11T00:46:11.140Z,13.77
2022-10-11T00:47:11.108Z,13.74
2022-10-11T00:48:11.075Z,13.74
2022-10-11T00:49:11.079Z,13.71
2022-10-11T00:50:11.050Z,13.72
2022-10-11T00:51:11.031Z,13.74
2022-10-11T00:52:11.021Z,13.70
2022-10-11T00:53:11.026Z,13.68
2022-10-11T00:54:11.015Z,13.67
2022-10-11T00:55:10.978Z,13.65
2022-10-11T00:56:10.980Z,13.67
2022-10-11T00:57:10.959Z,13.65
2022-10-11T00:58:10.957Z,13.65
2022-10-11T00:59:10.944Z,13.62
2022-10-11T01:00:10.952Z,13.60
2022-10-11T01:01:10.963Z,13.60
2022-10-11T01:02:10.909Z,13.60
2022-10-11T01:03:10.896Z,13.60
2022-10-11T01:04:10.895Z,13.59
2022-10-11T01:05:28.673Z,13.56
2022-10-11T01:06:10.885Z,13.53
2022-10-11T01:07:10.853Z,13.50
2022-10-11T01:08:10.844Z,13.50
2022-10-11T01:09:10.831Z,13.46
2022-10-11T05:00:57.110Z,10.35
2022-10-11T05:01:58.043Z,10.33
2022-10-11T05:02:57.903Z,10.31
2022-10-11T05:03:57.884Z,10.31
2022-10-11T05:04:57.882Z,10.28
2022-10-11T05:06:00.917Z,10.28
2022-10-11T05:06:57.858Z,10.26
2022-10-11T05:07:57.843Z,10.22
2022-10-11T05:08:57.858Z,10.22
2022-10-11T05:09:57.829Z,10.22
2022-10-11T05:10:57.824Z,10.23
2022-10-11T05:11:57.819Z,10.22
2022-10-11T05:12:57.793Z,10.19
2022-10-11T05:13:57.786Z,10.17
2022-10-11T05:14:57.808Z,10.17
2022-10-11T05:16:07.158Z,10.13
2022-10-11T05:16:57.701Z,10.13
2022-10-11T05:17:57.712Z,10.12
2022-10-11T05:18:57.681Z,10.07
2022-10-11T05:19:57.657Z,10.05
2022-10-11T05:20:57.651Z,10.07
2022-10-11T05:21:57.661Z,10.02
2022-10-11T05:22:57.628Z,9.98
2022-10-11T05:23:57.628Z,9.95
2022-10-11T05:24:57.644Z,9.92
2022-10-11T05:25:57.595Z,9.91
2022-10-11T05:27:02.336Z,9.92
2022-10-11T05:27:57.620Z,9.92
2022-10-11T05:28:57.653Z,9.92
2022-10-11T05:29:57.596Z,9.91
2022-10-11T05:30:57.550Z,9.92
2022-10-11T05:31:57.532Z,9.91
2022-10-11T05:32:57.553Z,9.87
2022-10-11T05:33:57.520Z,9.84
2022-10-11T05:34:57.517Z,9.83
2022-10-11T05:35:57.517Z,9.82
2022-10-11T05:36:57.487Z,9.79
2022-10-11T05:37:57.479Z,9.77
2022-10-11T05:38:57.472Z,9.76
2022-10-11T05:39:57.447Z,9.77
2022-10-11T05:40:57.461Z,9.79
2022-10-11T05:41:57.433Z,9.79
2022-10-11T05:42:57.428Z,9.79
2022-10-11T05:43:57.398Z,9.79
2022-10-11T05:44:57.395Z,9.82
2022-10-11T05:45:57.379Z,9.76
2022-10-11T05:46:57.420Z,9.77
2022-10-11T05:47:57.354Z,9.76
2022-10-11T05:48:57.371Z,9.76
2022-10-11T05:49:57.339Z,9.77
2022-10-11T05:50:57.332Z,9.74
2022-10-11T05:51:57.322Z,9.76
2022-10-11T05:52:57.334Z,9.73
2022-10-11T05:53:57.293Z,9.76
2022-10-11T05:54:57.280Z,9.73
2022-10-11T05:55:57.272Z,9.74
2022-10-11T05:56:57.260Z,9.72
2022-10-11T05:57:57.282Z,9.72
2022-10-11T05:59:02.015Z,9.72
2022-10-11T05:59:57.228Z,9.69
2022-10-11T06:00:57.354Z,9.72
2022-10-11T06:01:57.203Z,9.73
2022-10-11T06:02:57.196Z,9.72
2022-10-11T06:03:57.185Z,9.72
2022-10-11T06:04:57.220Z,9.69
2022-10-11T06:05:57.462Z,9.69
2022-10-11T06:06:57.157Z,9.69
2022-10-11T06:07:57.137Z,9.68
2022-10-11T06:08:57.156Z,9.66
2022-10-11T06:09:57.158Z,9.66
2022-10-11T06:10:57.113Z,9.68
2022-10-11T06:11:57.123Z,9.66
2022-10-11T06:12:57.096Z,9.69
2022-10-11T06:13:57.073Z,9.69
2022-10-11T06:14:57.084Z,9.72
2022-10-11T06:15:57.063Z,9.74
2022-10-11T06:16:57.050Z,9.73
2022-10-11T06:17:57.059Z,9.72
2022-10-11T06:18:57.046Z,9.73
2022-10-11T06:19:57.015Z,9.69
2022-10-11T06:20:57.033Z,9.69
2022-10-11T06:21:56.996Z,9.72
2022-10-11T06:22:56.998Z,9.72
2022-10-11T06:24:01.137Z,9.72
2022-10-11T06:24:56.953Z,9.74
2022-10-11T06:25:56.952Z,9.73
2022-10-11T06:26:56.976Z,9.74
2022-10-11T06:27:56.936Z,9.73
2022-10-11T06:28:57.004Z,9.73
2022-10-11T06:29:56.901Z,9.72
2022-10-11T06:30:56.907Z,9.74
2022-10-11T06:31:56.902Z,9.72
2022-10-11T06:32:59.082Z,9.73
2022-10-11T06:33:56.871Z,9.73
2022-10-11T06:34:56.865Z,9.73
2022-10-11T06:35:56.831Z,9.74
2022-10-11T06:36:56.828Z,9.77
2022-10-11T06:37:56.838Z,9.77
2022-10-11T06:38:56.802Z,9.77
2022-10-11T06:39:56.825Z,9.79
2022-10-11T06:40:56.786Z,9.82
2022-10-11T06:41:56.774Z,9.84
2022-10-11T06:42:56.770Z,9.84
2022-10-11T06:43:56.772Z,9.83
2022-10-11T06:44:56.785Z,9.84
2022-10-11T06:45:56.744Z,9.86
2022-10-11T06:46:56.726Z,9.87
2022-10-11T06:47:56.727Z,9.87
2022-10-11T06:48:56.751Z,9.91
2022-10-11T06:49:56.686Z,9.92
2022-10-11T06:50:59.914Z,9.95
2022-10-11T06:51:56.680Z,9.94
2022-10-11T06:52:56.682Z,9.95
2022-10-11T06:53:56.642Z,9.97
2022-10-11T06:54:56.638Z,9.98
2022-10-11T06:55:56.621Z,9.99
2022-10-11T06:56:56.636Z,10.01
2022-10-11T06:57:56.653Z,9.99
2022-10-11T06:58:56.604Z,10.01
2022-10-11T06:59:56.598Z,10.01
2022-10-11T07:00:56.640Z,9.99
2022-10-11T07:01:56.571Z,10.02
2022-10-11T07:02:56.574Z,10.02
2022-10-11T07:03:56.569Z,10.07
2022-10-11T07:04:56.524Z,10.09
2022-10-11T07:06:00.208Z,10.09
2022-10-11T07:06:56.534Z,10.10
2022-10-11T07:07:56.553Z,10.12
2022-10-11T07:08:56.529Z,10.13
2022-10-11T07:09:56.478Z,10.16
2022-10-11T07:10:56.454Z,10.17
2022-10-11T07:11:56.448Z,10.16
2022-10-11T07:12:56.472Z,10.15
2022-10-11T07:13:56.463Z,10.17
2022-10-11T07:14:56.420Z,10.19
2022-10-11T07:15:56.418Z,10.22
2022-10-11T07:16:56.396Z,10.20
2022-10-11T07:17:56.384Z,10.22
2022-10-11T07:19:00.267Z,10.22
2022-10-11T07:19:56.386Z,10.22
2022-10-11T07:20:56.362Z,10.23
2022-10-11T07:21:56.344Z,10.23
2022-10-11T07:22:56.341Z,10.25
2022-10-11T07:23:56.317Z,10.28
2022-10-11T07:24:56.305Z,10.31
2022-10-11T07:25:56.314Z,10.33
2022-10-11T07:26:56.288Z,10.33
2022-10-11T07:27:56.274Z,10.35
2022-10-11T07:28:56.362Z,10.35
2022-10-11T07:29:56.265Z,10.37
2022-10-11T07:30:56.242Z,10.38
2022-10-11T07:31:56.279Z,10.41
2022-10-11T07:32:56.221Z,10.41
2022-10-11T07:33:56.224Z,10.44
2022-10-11T07:34:56.197Z,10.42
2022-10-11T07:35:56.197Z,10.44
2022-10-11T07:36:56.182Z,10.42
2022-10-11T07:37:56.199Z,10.48
2022-10-11T07:38:56.155Z,10.48
2022-10-11T07:39:56.149Z,10.49
2022-10-11T07:40:56.129Z,10.53
2022-10-11T07:41:56.121Z,10.53
2022-10-11T07:42:56.161Z,10.54
2022-10-11T07:43:56.116Z,10.56
2022-10-11T07:44:56.095Z,10.57
2022-10-11T07:45:56.084Z,10.60
2022-10-11T07:46:56.069Z,10.63
2022-10-11T07:47:56.072Z,10.64
2022-10-11T07:48:56.076Z,10.64
2022-10-11T07:49:56.045Z,10.67
2022-10-11T07:50:56.029Z,10.68
2022-10-11T07:51:56.013Z,10.68
2022-10-11T07:52:56.009Z,10.69
2022-10-11T07:53:55.989Z,10.72
2022-10-11T07:54:55.990Z,10.71
2022-10-11T07:55:55.996Z,10.75
2022-10-11T07:56:56.028Z,10.75
2022-10-11T07:57:55.960Z,10.76
2022-10-11T07:58:55.966Z,10.76
2022-10-11T07:59:55.967Z,10.79
2022-10-11T08:00:55.964Z,10.79
2022-10-11T08:01:55.975Z,10.81
2022-10-11T08:02:55.892Z,10.84
2022-10-11T08:03:55.893Z,10.86
2022-10-11T08:04:55.881Z,10.90
2022-10-11T08:05:55.892Z,10.92
2022-10-11T08:06:55.849Z,10.94
2022-10-11T08:07:55.855Z,10.97
2022-10-11T08:08:55.867Z,11.00
2022-10-11T08:09:55.828Z,11.02
2022-10-11T08:10:55.807Z,11.02
2022-10-11T08:11:55.818Z,11.04
2022-10-11T08:12:57.674Z,11.05
2022-10-11T08:13:55.791Z,11.05
2022-10-11T08:14:55.769Z,11.05
2022-10-11T08:15:55.766Z,11.07
2022-10-11T08:16:55.769Z,11.10
2022-10-11T08:17:55.773Z,11.10
2022-10-11T08:18:55.732Z,11.11
2022-10-11T08:19:55.743Z,11.10
2022-10-11T08:20:55.698Z,11.14
2022-10-11T08:21:55.697Z,11.15
2022-10-11T08:22:55.706Z,11.18
2022-10-11T08:23:55.667Z,11.22
2022-10-11T08:24:55.654Z,11.23
2022-10-11T08:25:55.655Z,11.25
2022-10-11T08:26:55.648Z,11.25
2022-10-11T08:27:55.631Z,11.26
2022-10-11T08:28:55.708Z,11.27
2022-10-11T08:29:55.609Z,11.30
2022-10-11T08:30:55.590Z,11.30
2022-10-11T08:31:55.590Z,11.30
2022-10-11T08:32:55.569Z,11.33
2022-10-11T08:33:55.587Z,11.33
2022-10-11T08:34:55.560Z,11.35
2022-10-11T08:35:55.552Z,11.37
2022-10-11T08:36:55.561Z,11.41
2022-10-11T08:37:55.548Z,11.45
2022-10-11T08:38:55.522Z,11.47
2022-10-11T08:39:55.510Z,11.48
2022-10-11T08:40:55.482Z,11.48
2022-10-11T08:41:55.473Z,11.52
2022-10-11T08:42:55.481Z,11.51
2022-10-11T08:43:55.461Z,11.55
2022-10-11T08:45:12.116Z,11.54
2022-10-11T08:45:55.440Z,11.55
2022-10-11T08:46:59.602Z,11.57
2022-10-11T08:47:55.441Z,11.60
2022-10-11T08:48:55.396Z,11.63
2022-10-11T08:49:55.394Z,11.66
2022-10-11T08:50:55.371Z,11.65
2022-10-11T08:51:55.383Z,11.66
2022-10-11T08:52:55.365Z,11.68
2022-10-11T08:53:55.357Z,11.70
2022-10-11T08:54:55.341Z,11.70
2022-10-11T08:55:55.359Z,11.72
2022-10-11T08:56:55.317Z,11.73
2022-10-11T08:57:55.306Z,11.73
2022-10-11T08:58:55.291Z,11.78
2022-10-11T08:59:55.299Z,11.81
2022-10-11T09:00:55.263Z,11.80
2022-10-11T09:01:55.385Z,11.81
2022-10-11T09:03:08.046Z,11.84
2022-10-11T09:03:55.240Z,11.86
2022-10-11T09:04:55.225Z,11.87
2022-10-11T09:05:55.272Z,11.90
2022-10-11T09:06:55.211Z,11.94
2022-10-11T09:07:55.197Z,11.95
2022-10-11T09:08:55.187Z,11.97
2022-10-11T09:09:55.182Z,11.99
2022-10-11T09:10:55.163Z,11.99
2022-10-11T09:11:55.167Z,12.02
2022-10-11T09:12:55.131Z,12.04
2022-10-11T09:13:55.128Z,12.06
2022-10-11T09:14:55.117Z,12.07
2022-10-11T09:15:55.100Z,12.06
2022-10-11T09:16:55.097Z,12.07
2022-10-11T09:17:55.119Z,12.10
2022-10-11T09:18:55.071Z,12.12
2022-10-11T09:19:55.067Z,12.12
2022-10-11T09:20:55.085Z,12.13
2022-10-11T09:21:55.043Z,12.13
2022-10-11T09:22:55.045Z,12.17
2022-10-11T09:23:55.049Z,12.15
2022-10-11T09:24:55.010Z,12.17
2022-10-11T09:25:55.003Z,12.18
2022-10-11T09:26:55.013Z,12.17
2022-10-11T09:28:02.873Z,12.18
2022-10-11T09:28:58.724Z,12.20
2022-10-11T09:29:54.984Z,12.21
2022-10-11T09:30:54.938Z,12.22
2022-10-11T09:31:54.940Z,12.24
2022-10-11T09:32:54.949Z,12.24
2022-10-11T09:33:54.908Z,12.28
2022-10-11T09:34:54.916Z,12.27
2022-10-11T09:35:54.900Z,12.29
2022-10-11T09:36:54.876Z,12.31
2022-10-11T09:37:54.883Z,12.31
2022-10-11T09:38:54.869Z,12.35
2022-10-11T09:39:54.846Z,12.32
2022-10-11T09:40:54.837Z,12.32
2022-10-11T09:41:54.825Z,12.36
2022-10-11T09:42:54.821Z,12.36
2022-10-11T09:43:54.832Z,12.39
2022-10-11T09:44:54.783Z,12.39
2022-10-11T09:45:54.783Z,12.39
2022-10-11T09:46:54.773Z,12.39
2022-10-11T09:47:54.776Z,12.40
2022-10-11T09:48:54.755Z,12.43
2022-10-11T09:49:54.797Z,12.45
2022-10-11T09:50:54.723Z,12.45
2022-10-11T09:51:54.724Z,12.46
2022-10-11T09:52:54.707Z,12.45
2022-10-11T09:53:54.689Z,12.47
2022-10-11T09:54:54.684Z,12.47
2022-10-11T09:55:54.720Z,12.49
2022-10-11T09:56:54.665Z,12.50
2022-10-11T09:57:54.664Z,12.50
2022-10-11T09:58:54.651Z,12.50
2022-10-11T09:59:54.650Z,12.55
2022-10-11T10:00:54.621Z,12.55
2022-10-11T10:01:54.644Z,12.57
2022-10-11T10:02:54.587Z,12.58
2022-10-11T10:03:54.586Z,12.60
2022-10-11T10:04:54.589Z,12.61
2022-10-11T10:05:54.563Z,12.62
2022-10-11T10:06:54.560Z,12.64
2022-10-11T10:07:54.547Z,12.64
2022-10-11T10:08:54.529Z,12.65
2022-10-11T10:09:54.548Z,12.67
2022-10-11T10:10:58.544Z,12.68
2022-10-11T10:11:54.518Z,12.70
2022-10-11T10:12:54.477Z,12.72
2022-10-11T10:13:54.480Z,12.72
2022-10-11T10:14:54.512Z,12.76
2022-10-11T10:15:54.474Z,12.78
2022-10-11T10:16:54.453Z,12.79
2022-10-11T10:17:54.439Z,12.82
2022-10-11T10:18:54.435Z,12.82
2022-10-11T10:19:54.488Z,12.85
2022-10-11T10:20:54.527Z,12.85
2022-10-11T10:21:54.413Z,12.86
2022-10-11T10:22:54.376Z,12.86
2022-10-11T10:23:54.371Z,12.86
2022-10-11T10:24:54.380Z,12.91
2022-10-11T10:25:54.340Z,12.90
2022-10-11T10:26:54.333Z,12.90
2022-10-11T10:27:54.325Z,12.91
2022-10-11T10:28:54.372Z,12.93
2022-10-11T10:29:54.302Z,12.95
2022-10-11T10:30:54.318Z,12.98
2022-10-11T10:32:13.382Z,13.01
2022-10-11T10:32:54.281Z,13.01
2022-10-11T10:33:54.289Z,13.04
2022-10-11T10:34:54.270Z,13.08
2022-10-11T10:35:54.246Z,13.09
2022-10-11T10:36:54.251Z,13.13
2022-10-11T10:37:54.217Z,13.12
2022-10-11T10:38:54.211Z,13.15
2022-10-11T10:39:54.192Z,13.18
2022-10-11T10:40:54.191Z,13.20
2022-10-11T10:41:54.165Z,13.19
2022-10-11T10:42:54.187Z,13.22
2022-10-11T10:43:54.154Z,13.23
2022-10-11T10:44:54.143Z,13.28
2022-10-11T10:45:54.140Z,13.28
2022-10-11T10:46:54.128Z,13.30
2022-10-11T10:47:54.116Z,13.33
2022-10-11T10:49:55.078Z,13.41
2022-10-11T10:50:54.075Z,13.44
2022-10-11T10:51:54.060Z,13.44
2022-10-11T10:52:54.049Z,13.46
2022-10-11T10:53:54.067Z,13.47
2022-10-11T10:54:54.032Z,13.50
2022-10-11T10:55:54.023Z,13.52
2022-10-11T10:56:54.035Z,13.54
2022-10-11T10:57:54.031Z,13.56
2022-10-11T10:58:54.007Z,13.60
2022-10-11T10:59:54.002Z,13.62
2022-10-11T11:00:54.008Z,13.62
2022-10-11T11:01:53.991Z,13.67
2022-10-11T11:02:54.078Z,13.70
2022-10-11T11:03:53.931Z,13.72
2022-10-11T11:04:54.010Z,13.72
2022-10-11T11:05:53.906Z,13.77
2022-10-11T11:06:53.907Z,13.78
2022-10-11T11:07:53.898Z,13.85
2022-10-11T11:08:53.888Z,13.85
2022-10-11T11:09:53.881Z,13.89
2022-10-11T11:10:53.878Z,13.90
2022-10-11T11:11:53.839Z,13.92
2022-10-11T11:12:53.858Z,13.95
2022-10-11T11:13:53.815Z,13.96
2022-10-11T11:14:53.815Z,13.99
2022-10-11T11:15:53.810Z,13.99
2022-10-11T11:16:59.823Z,14.00
2022-10-11T11:17:53.772Z,14.04
2022-10-11T11:18:53.767Z,14.04
2022-10-11T11:19:53.758Z,14.07
2022-10-11T11:20:53.757Z,14.07
2022-10-11T11:21:53.738Z,14.08
2022-10-11T11:22:53.725Z,14.08
2022-10-11T11:23:53.732Z,14.10
2022-10-11T11:24:53.698Z,14.14
2022-10-11T11:25:53.685Z,14.15
2022-10-11T11:26:53.710Z,14.17
2022-10-11T11:27:53.666Z,14.20
2022-10-11T11:28:53.790Z,14.25
2022-10-11T11:29:55.640Z,14.28
2022-10-11T11:30:53.661Z,14.30
2022-10-11T11:31:53.627Z,14.35
2022-10-11T11:32:53.657Z,14.40
2022-10-11T11:33:53.611Z,14.44
2022-10-11T11:34:53.595Z,14.48
2022-10-11T11:35:53.585Z,14.54
2022-10-11T11:36:53.572Z,14.58
2022-10-11T11:38:00.168Z,14.62
2022-10-11T11:38:53.585Z,14.66
2022-10-11T11:39:53.542Z,14.70
2022-10-11T11:40:53.527Z,14.77
2022-10-11T11:41:53.514Z,14.82
2022-10-11T11:42:53.543Z,14.88
2022-10-11T11:43:53.497Z,14.91
2022-10-11T11:44:53.503Z,14.94
2022-10-11T11:45:53.472Z,14.99
2022-10-11T11:46:53.466Z,15.04
2022-10-11T11:47:53.455Z,15.07
2022-10-11T11:48:53.496Z,15.15
2022-10-11T11:49:53.437Z,15.17
2022-10-11T11:50:53.416Z,15.21
2022-10-11T11:51:53.407Z,15.24
2022-10-11T11:52:53.394Z,15.29
2022-10-11T11:53:53.392Z,15.33
2022-10-11T11:54:53.399Z,15.39
2022-10-11T11:55:53.368Z,15.42
2022-10-11T11:56:53.354Z,15.44
2022-10-11T11:57:53.345Z,15.51
2022-10-11T11:58:53.335Z,15.52
2022-10-11T11:59:53.323Z,15.59
2022-10-11T12:00:53.334Z,15.70
2022-10-11T12:01:53.357Z,15.76
2022-10-11T12:02:53.285Z,15.79
2022-10-11T12:03:53.280Z,15.83
2022-10-11T12:04:53.263Z,15.86
2022-10-11T12:05:53.256Z,15.91
2022-10-11T12:07:14.935Z,15.95
2022-10-11T12:07:53.232Z,16.00
2022-10-11T12:08:53.243Z,16.01
2022-10-11T12:09:53.240Z,16.09
2022-10-11T12:10:53.194Z,16.10
2022-10-11T12:11:53.395Z,16.15
2022-10-11T12:12:53.183Z,16.16
2022-10-11T12:13:53.166Z,16.20
2022-10-11T12:14:53.178Z,16.23
2022-10-11T12:15:53.143Z,16.26
2022-10-11T12:16:53.160Z,16.31
2022-10-11T12:17:53.120Z,16.32
2022-10-11T12:18:53.122Z,16.36
2022-10-11T12:19:53.095Z,16.42
2022-10-11T12:20:53.107Z,16.43
2022-10-11T12:21:53.078Z,16.49
2022-10-11T12:22:53.071Z,16.50
2022-10-11T12:23:53.076Z,16.56
2022-10-11T12:24:53.049Z,16.58
2022-10-11T12:25:53.032Z,16.64
2022-10-11T12:26:53.044Z,16.65
2022-10-11T12:27:53.041Z,16.71
2022-10-11T12:28:53.062Z,16.75
2022-10-11T12:29:52.995Z,16.78
2022-10-11T12:30:52.979Z,16.78
2022-10-11T12:31:52.976Z,16.84
2022-10-11T12:32:52.990Z,16.90
2022-10-11T12:33:52.949Z,16.91
2022-10-11T12:34:52.954Z,16.91
2022-10-11T12:35:52.943Z,16.93
2022-10-11T12:36:52.929Z,16.94
2022-10-11T12:37:52.911Z,16.93
2022-10-11T12:38:52.917Z,16.93
2022-10-11T12:39:52.878Z,16.94
2022-10-11T12:40:52.872Z,16.96
2022-10-11T12:41:52.864Z,17.02
2022-10-11T12:42:52.851Z,17.02
2022-10-11T12:43:52.852Z,17.05
2022-10-11T12:44:52.861Z,17.05
2022-10-11T12:45:52.830Z,17.09
2022-10-11T12:46:52.815Z,17.11
2022-10-11T12:47:52.796Z,17.15
2022-10-11T12:48:52.787Z,17.20
2022-10-11T12:49:52.771Z,17.22
2022-10-11T12:50:52.796Z,17.22
2022-10-11T12:51:52.762Z,17.22
2022-10-11T12:52:52.745Z,17.24
2022-10-11T12:54:14.409Z,17.27
2022-10-11T12:54:52.736Z,17.31
2022-10-11T12:55:52.700Z,17.34
2022-10-11T12:56:52.733Z,17.38
2022-10-11T12:57:52.745Z,17.38
2022-10-11T12:58:52.677Z,17.39
2022-10-11T12:59:52.662Z,17.42
2022-10-11T13:00:52.737Z,17.42
2022-10-11T13:01:52.641Z,17.39
2022-10-11T13:02:52.649Z,17.42
2022-10-11T13:03:52.623Z,17.45
2022-10-11T13:04:52.611Z,17.45
2022-10-11T13:05:53.909Z,17.46
2022-10-11T13:06:52.605Z,17.46
2022-10-11T13:07:52.580Z,17.44
2022-10-11T13:08:52.604Z,17.44
2022-10-11T13:09:52.562Z,17.42
2022-10-11T13:10:52.549Z,17.46
2022-10-11T13:11:52.561Z,17.46
2022-10-11T13:12:52.561Z,17.46
2022-10-11T13:13:52.511Z,17.51
2022-10-11T13:14:52.508Z,17.59
2022-10-11T13:15:52.497Z,17.63
2022-10-11T13:16:52.495Z,17.64
2022-10-11T13:17:52.469Z,17.64
2022-10-11T13:18:52.472Z,17.67
2022-10-11T13:19:52.456Z,17.68
2022-10-11T13:20:52.445Z,17.68
2022-10-11T13:21:52.434Z,17.74
2022-10-11T13:22:52.414Z,17.74
2022-10-11T13:23:52.408Z,17.72
2022-10-11T13:24:52.409Z,17.74
2022-10-11T13:25:52.393Z,17.76
2022-10-11T13:26:52.374Z,17.76
2022-10-11T13:27:52.358Z,17.79
2022-10-11T13:28:52.375Z,17.80
2022-10-11T13:29:52.336Z,17.80
2022-10-11T13:30:52.354Z,17.85
2022-10-11T13:31:52.317Z,17.89
2022-10-11T13:32:52.305Z,17.90
2022-10-11T13:33:52.293Z,17.90
2022-10-11T13:34:52.343Z,17.94
2022-10-11T13:35:52.276Z,17.97
2022-10-11T13:36:52.323Z,18.00
2022-10-11T13:37:52.274Z,18.01
2022-10-11T13:38:52.257Z,18.05
2022-10-11T13:39:52.222Z,18.11
2022-10-11T13:40:52.225Z,18.15
2022-10-11T13:41:52.205Z,18.13
2022-10-11T13:42:52.226Z,18.16
2022-10-11T13:43:52.191Z,18.19
2022-10-11T13:44:52.186Z,18.16
2022-10-11T13:45:52.182Z,18.15
2022-10-11T13:46:52.195Z,18.18
2022-10-11T13:47:52.148Z,18.18
2022-10-11T13:48:52.130Z,18.19
2022-10-11T13:49:52.122Z,18.22
2022-10-11T13:50:52.115Z,18.20
2022-10-11T13:51:52.093Z,18.26
2022-10-11T13:52:52.105Z,18.33
2022-10-11T13:53:52.077Z,18.37
2022-10-11T13:54:52.074Z,18.41
2022-10-11T13:55:52.055Z,18.45
2022-10-11T13:56:52.043Z,18.52
2022-10-11T13:57:52.032Z,18.53
2022-10-11T13:58:52.047Z,18.60
2022-10-11T13:59:52.014Z,18.62
2022-10-11T14:00:52.007Z,18.65
2022-10-11T14:01:52.032Z,18.65
2022-10-11T14:02:51.982Z,18.68
2022-10-11T14:03:51.966Z,18.71
2022-10-11T14:04:51.972Z,18.75
2022-10-11T14:05:51.951Z,18.78
2022-10-11T14:06:51.951Z,18.81
2022-10-11T14:07:51.928Z,18.84
2022-10-11T14:08:51.916Z,18.86
2022-10-11T14:09:51.901Z,18.88
2022-10-11T14:10:56.682Z,18.88
2022-10-11T14:11:51.878Z,18.89
2022-10-11T14:12:51.892Z,18.89
2022-10-11T14:13:51.875Z,18.88
2022-10-11T14:14:51.854Z,18.84
2022-10-11T14:15:51.845Z,18.88
2022-10-11T14:16:51.837Z,18.84
2022-10-11T14:17:51.818Z,18.81
2022-10-11T14:18:51.809Z,18.83
2022-10-11T14:19:51.801Z,18.84
2022-10-11T14:20:51.791Z,18.83
2022-10-11T14:21:51.772Z,18.81
2022-10-11T14:22:51.754Z,18.84
2022-10-11T14:23:51.752Z,18.80
2022-10-11T14:24:51.766Z,18.80
2022-10-11T14:25:51.730Z,18.84
2022-10-11T14:26:51.727Z,18.88
2022-10-11T14:27:51.704Z,18.88
2022-10-11T14:28:51.759Z,18.89
2022-10-11T14:30:13.011Z,18.90
2022-10-11T14:30:51.684Z,18.88
2022-10-11T14:31:51.666Z,18.88
2022-10-11T14:32:51.667Z,18.81
2022-10-11T14:33:51.633Z,18.83
2022-10-11T14:34:51.633Z,18.84
2022-10-11T14:35:51.637Z,18.83
2022-10-11T14:36:51.616Z,18.80
2022-10-11T14:37:51.588Z,18.81
2022-10-11T14:38:51.592Z,18.83
2022-10-11T14:39:51.571Z,18.84
2022-10-11T14:40:51.568Z,18.83
2022-10-11T14:41:51.579Z,18.83
2022-10-11T14:42:51.538Z,18.81
2022-10-11T14:43:51.630Z,18.83
2022-10-11T14:44:51.535Z,18.80
2022-10-11T14:45:51.521Z,18.83
2022-10-11T14:46:54.228Z,18.80
2022-10-11T14:47:51.499Z,18.81
2022-10-11T14:48:55.437Z,18.81
2022-10-11T14:49:51.487Z,18.80
2022-10-11T14:50:51.461Z,18.78
2022-10-11T14:51:51.453Z,18.78
2022-10-11T14:52:51.432Z,18.77
2022-10-11T14:53:51.422Z,18.73
2022-10-11T14:54:51.433Z,18.66
2022-10-11T14:55:51.398Z,18.65
2022-10-11T14:56:51.417Z,18.68
2022-10-11T14:57:51.377Z,18.71
2022-10-11T14:58:51.363Z,18.73
2022-10-11T14:59:51.359Z,18.75
2022-10-11T15:00:51.365Z,18.77
2022-10-11T15:01:51.371Z,18.77
2022-10-11T15:02:51.344Z,18.80
2022-10-11T15:03:51.308Z,18.78
2022-10-11T15:04:51.301Z,18.78
2022-10-11T15:05:51.423Z,18.78
2022-10-11T15:06:51.285Z,18.78
2022-10-11T15:07:51.277Z,18.75
2022-10-11T15:08:51.308Z,18.75
2022-10-11T15:09:51.249Z,18.74
2022-10-11T15:10:51.236Z,18.75
2022-10-11T15:11:51.222Z,18.77
2022-10-11T15:12:51.221Z,18.77
2022-10-11T15:13:51.202Z,18.74
2022-10-11T15:14:51.212Z,18.70
2022-10-11T15:15:51.184Z,18.66
2022-10-11T15:16:51.171Z,18.62
2022-10-11T15:17:51.152Z,18.59
2022-10-11T15:18:51.172Z,18.56
2022-10-11T15:19:51.133Z,18.47
2022-10-11T15:20:51.126Z,18.47
2022-10-11T15:21:51.140Z,18.43
2022-10-11T15:22:51.106Z,18.38
2022-10-11T15:23:51.097Z,18.37
2022-10-11T15:24:51.906Z,18.37
2022-10-11T15:25:51.077Z,18.35
2022-10-11T15:26:51.062Z,18.31
2022-10-11T15:27:51.054Z,18.29
2022-10-11T15:28:51.119Z,18.26
2022-10-11T15:29:51.054Z,18.25
2022-10-11T15:30:51.032Z,18.25
2022-10-11T15:31:51.031Z,18.26
2022-10-11T15:32:50.996Z,18.25
2022-10-11T15:33:50.997Z,18.25
2022-10-11T15:34:50.973Z,18.23
2022-10-11T15:35:50.979Z,18.22
2022-10-11T15:36:50.972Z,18.22
2022-10-11T15:37:50.955Z,18.20
2022-10-11T15:38:50.928Z,18.20
2022-10-11T15:39:50.929Z,18.15
2022-10-11T15:40:50.905Z,18.10
2022-10-11T15:41:50.933Z,18.04
2022-10-11T15:42:50.921Z,18.01
2022-10-11T15:43:50.880Z,17.98
2022-10-11T15:44:50.858Z,17.92
2022-10-11T15:45:50.870Z,17.85
2022-10-11T15:46:50.851Z,17.78
2022-10-11T15:47:50.849Z,17.74
2022-10-11T15:48:50.822Z,17.70
2022-10-11T15:49:50.819Z,17.65
2022-10-11T15:50:50.805Z,17.57
2022-10-11T15:51:50.787Z,17.52
2022-10-11T15:52:50.802Z,17.51
2022-10-11T15:53:50.784Z,17.48
2022-10-11T15:54:50.747Z,17.41
2022-10-11T15:55:50.749Z,17.33
2022-10-11T15:56:50.737Z,17.30
2022-10-11T15:57:50.729Z,17.24
2022-10-11T15:58:50.712Z,17.20
2022-10-11T15:59:50.722Z,17.15
2022-10-11T16:00:50.692Z,17.14
2022-10-11T16:01:50.733Z,17.08
2022-10-11T16:02:50.692Z,17.05
2022-10-11T16:03:50.681Z,16.99
2022-10-11T16:04:50.648Z,16.94
2022-10-11T16:05:50.680Z,16.90
2022-10-11T16:06:50.629Z,16.81
2022-10-11T16:07:50.623Z,16.75
2022-10-11T16:08:50.601Z,16.69
2022-10-11T16:09:50.593Z,16.65
2022-10-11T16:10:50.605Z,16.58
2022-10-11T16:11:50.651Z,16.54
2022-10-11T16:12:50.553Z,16.53
2022-10-11T16:13:50.566Z,16.51
2022-10-11T16:14:50.532Z,16.46
2022-10-11T16:15:50.529Z,16.41
2022-10-11T16:16:50.512Z,16.42
2022-10-11T16:17:50.536Z,16.38
2022-10-11T16:18:50.497Z,16.35
2022-10-11T16:19:50.489Z,16.31
2022-10-11T16:20:50.473Z,16.26
2022-10-11T16:21:50.471Z,16.20
2022-10-11T16:22:50.470Z,16.17
2022-10-11T16:23:50.440Z,16.13
2022-10-11T16:24:50.434Z,16.10
2022-10-11T16:25:50.430Z,16.05
2022-10-11T16:26:50.416Z,16.02
2022-10-11T16:27:50.403Z,15.95
2022-10-11T16:28:50.543Z,15.94
2022-10-11T16:29:50.390Z,15.90
2022-10-11T16:30:50.371Z,15.84
2022-10-11T16:31:50.367Z,15.82
2022-10-11T16:32:50.339Z,15.76
2022-10-11T16:33:50.382Z,15.76
2022-10-11T16:34:50.354Z,15.73
2022-10-11T16:35:50.313Z,15.68
2022-10-11T16:36:50.301Z,15.67
2022-10-11T16:37:50.297Z,15.61
2022-10-11T16:38:50.285Z,15.58
2022-10-11T16:39:50.271Z,15.55
2022-10-11T16:40:50.298Z,15.51
2022-10-11T16:41:50.244Z,15.49
2022-10-11T16:42:50.231Z,15.46
2022-10-11T16:43:50.260Z,15.44
2022-10-11T16:44:50.237Z,15.39
2022-10-11T16:45:50.224Z,15.36
2022-10-11T16:46:50.188Z,15.29